sensor_id;sensor_type;location;lat;lon;timestamp;temperature;humidity
18777;DHT22;9517;51.174;4.160;2022-08-25T00:01:35;23.50;99.90
18777;DHT22;9517;51.174;4.160;2022-08-25T00:04:05;23.40;99.90
18777;DHT22;9517;51.174;4.160;2022-08-25T00:06:33;23.40;99.90
18777;DHT22;9517;51.174;4.160;2022-08-25T00:09:03;23.30;99.90
18777;DHT22;9517;51.174;4.160;2022-08-25T00:11:32;23.30;99.90
18777;DHT22;9517;51.174;4.160;2022-08-25T00:14:01;23.30;99.90
18777;DHT22;9517;51.174;4.160;2022-08-25T00:16:31;23.20;99.90
18777;DHT22;9517;51.174;4.160;2022-08-25T00:19:06;23.10;99.90
18777;DHT22;9517;51.174;4.160;2022-08-25T00:21:33;23.10;99.90
18777;DHT22;9517;51.174;4.160;2022-08-25T00:24:02;23.10;99.90
18777;DHT22;9517;51.174;4.160;2022-08-25T00:26:29;23.10;99.90
18777;DHT22;9517;51.174;4.160;2022-08-25T00:29:01;23.10;99.90
18777;DHT22;9517;51.174;4.160;2022-08-25T00:31:31;23.00;99.90
18777;DHT22;9517;51.174;4.160;2022-08-25T00:33:59;23.00;99.90
18777;DHT22;9517;51.174;4.160;2022-08-25T00:36:32;22.90;99.90
18777;DHT22;9517;51.174;4.160;2022-08-25T00:39:02;22.80;99.90
18777;DHT22;9517;51.174;4.160;2022-08-25T00:41:29;22.90;99.90
18777;DHT22;9517;51.174;4.160;2022-08-25T00:43:59;22.80;99.90
18777;DHT22;9517;51.174;4.160;2022-08-25T00:46:35;22.90;99.90
18777;DHT22;9517;51.174;4.160;2022-08-25T00:49:08;22.80;99.90
18777;DHT22;9517;51.174;4.160;2022-08-25T00:51:39;22.60;99.90
18777;DHT22;9517;51.174;4.160;2022-08-25T00:54:14;22.60;99.90
18777;DHT22;9517;51.174;4.160;2022-08-25T00:56:44;22.60;99.90
18777;DHT22;9517;51.174;4.160;2022-08-25T00:59:18;22.60;99.90
18777;DHT22;9517;51.174;4.160;2022-08-25T01:01:48;22.70;99.90
18777;DHT22;9517;51.174;4.160;2022-08-25T01:04:15;22.60;99.90
18777;DHT22;9517;51.174;4.160;2022-08-25T01:06:42;22.60;99.90
18777;DHT22;9517;51.174;4.160;2022-08-25T01:09:11;22.50;99.90
18777;DHT22;9517;51.174;4.160;2022-08-25T01:11:40;22.50;99.90
18777;DHT22;9517;51.174;4.160;2022-08-25T01:14:09;22.40;99.90
18777;DHT22;9517;51.174;4.160;2022-08-25T01:16:39;22.40;99.90
18777;DHT22;9517;51.174;4.160;2022-08-25T01:19:12;22.40;99.90
18777;DHT22;9517;51.174;4.160;2022-08-25T01:21:43;22.40;99.90
18777;DHT22;9517;51.174;4.160;2022-08-25T01:24:15;22.30;99.90
18777;DHT22;9517;51.174;4.160;2022-08-25T01:26:45;22.30;99.90
18777;DHT22;9517;51.174;4.160;2022-08-25T01:29:13;22.30;99.90
18777;DHT22;9517;51.174;4.160;2022-08-25T01:31:55;22.20;99.90
18777;DHT22;9517;51.174;4.160;2022-08-25T01:34:24;22.30;99.90
18777;DHT22;9517;51.174;4.160;2022-08-25T01:36:54;22.30;99.90
18777;DHT22;9517;51.174;4.160;2022-08-25T01:39:21;22.20;99.90
18777;DHT22;9517;51.174;4.160;2022-08-25T01:42:16;22.10;99.90
18777;DHT22;9517;51.174;4.160;2022-08-25T01:44:45;22.20;99.90
18777;DHT22;9517;51.174;4.160;2022-08-25T01:47:15;22.20;99.90
18777;DHT22;9517;51.174;4.160;2022-08-25T01:49:43;22.20;99.90
18777;DHT22;9517;51.174;4.160;2022-08-25T01:52:19;22.10;99.90
18777;DHT22;9517;51.174;4.160;2022-08-25T01:54:46;22.10;99.90
18777;DHT22;9517;51.174;4.160;2022-08-25T01:57:14;22.10;99.90
18777;DHT22;9517;51.174;4.160;2022-08-25T01:59:42;22.00;99.90
18777;DHT22;9517;51.174;4.160;2022-08-25T02:02:11;21.90;99.90
18777;DHT22;9517;51.174;4.160;2022-08-25T02:04:38;21.90;99.90
18777;DHT22;9517;51.174;4.160;2022-08-25T02:07:07;21.90;99.90
18777;DHT22;9517;51.174;4.160;2022-08-25T02:09:36;21.80;99.90
18777;DHT22;9517;51.174;4.160;2022-08-25T02:12:04;21.80;99.90
18777;DHT22;9517;51.174;4.160;2022-08-25T02:14:31;21.80;99.90
18777;DHT22;9517;51.174;4.160;2022-08-25T02:17:04;21.80;99.90
18777;DHT22;9517;51.174;4.160;2022-08-25T02:19:31;21.70;99.90
18777;DHT22;9517;51.174;4.160;2022-08-25T02:22:01;21.70;99.90
18777;DHT22;9517;51.174;4.160;2022-08-25T02:24:29;21.60;99.90
18777;DHT22;9517;51.174;4.160;2022-08-25T02:26:58;21.60;99.90
18777;DHT22;9517;51.174;4.160;2022-08-25T02:29:35;21.50;99.90
18777;DHT22;9517;51.174;4.160;2022-08-25T02:32:02;21.50;99.90
18777;DHT22;9517;51.174;4.160;2022-08-25T02:34:30;21.50;99.90
18777;DHT22;9517;51.174;4.160;2022-08-25T02:36:58;21.50;99.90
18777;DHT22;9517;51.174;4.160;2022-08-25T02:39:28;21.40;99.90
18777;DHT22;9517;51.174;4.160;2022-08-25T02:42:05;21.30;99.90
18777;DHT22;9517;51.174;4.160;2022-08-25T02:44:32;21.30;99.90
18777;DHT22;9517;51.174;4.160;2022-08-25T02:46:59;21.30;99.90
18777;DHT22;9517;51.174;4.160;2022-08-25T02:49:28;21.20;99.90
18777;DHT22;9517;51.174;4.160;2022-08-25T02:51:59;21.20;99.90
18777;DHT22;9517;51.174;4.160;2022-08-25T02:54:37;21.20;99.90
18777;DHT22;9517;51.174;4.160;2022-08-25T02:57:19;21.20;99.90
18777;DHT22;9517;51.174;4.160;2022-08-25T02:59:46;21.10;99.90
18777;DHT22;9517;51.174;4.160;2022-08-25T03:02:15;21.10;99.90
18777;DHT22;9517;51.174;4.160;2022-08-25T03:04:42;21.00;99.90
18777;DHT22;9517;51.174;4.160;2022-08-25T03:07:09;21.00;99.90
18777;DHT22;9517;51.174;4.160;2022-08-25T03:09:37;21.00;99.90
18777;DHT22;9517;51.174;4.160;2022-08-25T03:12:04;21.00;99.90
18777;DHT22;9517;51.174;4.160;2022-08-25T03:14:33;21.00;99.90
18777;DHT22;9517;51.174;4.160;2022-08-25T03:17:00;21.00;99.90
18777;DHT22;9517;51.174;4.160;2022-08-25T03:19:27;20.90;99.90
18777;DHT22;9517;51.174;4.160;2022-08-25T03:21:54;21.00;99.90
18777;DHT22;9517;51.174;4.160;2022-08-25T03:24:22;21.00;99.90
18777;DHT22;9517;51.174;4.160;2022-08-25T03:26:49;21.00;99.90
18777;DHT22;9517;51.174;4.160;2022-08-25T03:29:18;21.00;99.90
18777;DHT22;9517;51.174;4.160;2022-08-25T03:31:47;21.00;99.90
18777;DHT22;9517;51.174;4.160;2022-08-25T03:34:15;21.10;99.90
18777;DHT22;9517;51.174;4.160;2022-08-25T03:36:43;21.10;99.90
18777;DHT22;9517;51.174;4.160;2022-08-25T03:39:12;21.10;99.90
18777;DHT22;9517;51.174;4.160;2022-08-25T03:41:41;21.20;99.90
18777;DHT22;9517;51.174;4.160;2022-08-25T03:44:09;21.20;99.90
18777;DHT22;9517;51.174;4.160;2022-08-25T03:46:39;21.20;99.90
18777;DHT22;9517;51.174;4.160;2022-08-25T03:49:11;21.20;99.90
18777;DHT22;9517;51.174;4.160;2022-08-25T03:51:43;21.30;99.90
18777;DHT22;9517;51.174;4.160;2022-08-25T03:54:12;21.30;99.90
18777;DHT22;9517;51.174;4.160;2022-08-25T03:56:40;21.30;99.90
18777;DHT22;9517;51.174;4.160;2022-08-25T03:59:08;21.30;99.90
18777;DHT22;9517;51.174;4.160;2022-08-25T04:01:35;21.20;99.90
18777;DHT22;9517;51.174;4.160;2022-08-25T04:04:03;21.20;99.90
18777;DHT22;9517;51.174;4.160;2022-08-25T04:06:33;21.10;99.90
18777;DHT22;9517;51.174;4.160;2022-08-25T04:09:00;21.20;99.90
18777;DHT22;9517;51.174;4.160;2022-08-25T04:11:28;21.10;99.90
18777;DHT22;9517;51.174;4.160;2022-08-25T04:13:56;21.10;99.90
18777;DHT22;9517;51.174;4.160;2022-08-25T04:16:27;21.10;99.90
18777;DHT22;9517;51.174;4.160;2022-08-25T04:18:57;21.20;99.90
18777;DHT22;9517;51.174;4.160;2022-08-25T04:21:25;21.10;99.90
18777;DHT22;9517;51.174;4.160;2022-08-25T04:23:55;21.10;99.90
18777;DHT22;9517;51.174;4.160;2022-08-25T04:26:25;21.00;99.90
18777;DHT22;9517;51.174;4.160;2022-08-25T04:28:53;20.90;99.90
18777;DHT22;9517;51.174;4.160;2022-08-25T04:31:21;20.80;99.90
18777;DHT22;9517;51.174;4.160;2022-08-25T04:33:49;20.70;99.90
18777;DHT22;9517;51.174;4.160;2022-08-25T04:36:19;20.80;99.90
18777;DHT22;9517;51.174;4.160;2022-08-25T04:38:48;20.80;99.90
18777;DHT22;9517;51.174;4.160;2022-08-25T04:41:19;20.80;99.90
18777;DHT22;9517;51.174;4.160;2022-08-25T04:43:46;20.80;99.90
18777;DHT22;9517;51.174;4.160;2022-08-25T04:46:20;20.80;99.90
18777;DHT22;9517;51.174;4.160;2022-08-25T04:48:48;20.80;99.90
18777;DHT22;9517;51.174;4.160;2022-08-25T04:51:20;20.80;99.90
18777;DHT22;9517;51.174;4.160;2022-08-25T04:53:48;20.70;99.90
18777;DHT22;9517;51.174;4.160;2022-08-25T04:56:21;20.60;99.90
18777;DHT22;9517;51.174;4.160;2022-08-25T04:58:50;20.70;99.90
18777;DHT22;9517;51.174;4.160;2022-08-25T05:01:21;20.60;99.90
18777;DHT22;9517;51.174;4.160;2022-08-25T05:03:55;20.60;99.90
18777;DHT22;9517;51.174;4.160;2022-08-25T05:06:22;20.70;99.90
18777;DHT22;9517;51.174;4.160;2022-08-25T05:08:50;20.70;99.90
18777;DHT22;9517;51.174;4.160;2022-08-25T05:11:19;20.70;99.90
18777;DHT22;9517;51.174;4.160;2022-08-25T05:13:48;20.90;99.90
18777;DHT22;9517;51.174;4.160;2022-08-25T05:16:16;20.90;99.90
18777;DHT22;9517;51.174;4.160;2022-08-25T05:18:44;20.90;99.90
18777;DHT22;9517;51.174;4.160;2022-08-25T05:21:13;20.90;99.90
18777;DHT22;9517;51.174;4.160;2022-08-25T05:23:41;21.00;99.90
18777;DHT22;9517;51.174;4.160;2022-08-25T05:26:10;21.00;99.90
18777;DHT22;9517;51.174;4.160;2022-08-25T05:28:42;21.00;99.90
18777;DHT22;9517;51.174;4.160;2022-08-25T05:31:11;21.10;99.90
18777;DHT22;9517;51.174;4.160;2022-08-25T05:33:39;21.20;99.90
18777;DHT22;9517;51.174;4.160;2022-08-25T05:36:09;21.30;99.90
18777;DHT22;9517;51.174;4.160;2022-08-25T05:38:37;21.40;99.90
18777;DHT22;9517;51.174;4.160;2022-08-25T05:41:05;21.40;99.90
18777;DHT22;9517;51.174;4.160;2022-08-25T05:43:35;21.50;99.90
18777;DHT22;9517;51.174;4.160;2022-08-25T05:46:06;21.60;99.90
18777;DHT22;9517;51.174;4.160;2022-08-25T05:48:34;21.70;99.90
18777;DHT22;9517;51.174;4.160;2022-08-25T05:51:05;21.80;99.90
18777;DHT22;9517;51.174;4.160;2022-08-25T05:53:33;21.90;99.90
18777;DHT22;9517;51.174;4.160;2022-08-25T05:56:01;21.90;99.90
18777;DHT22;9517;51.174;4.160;2022-08-25T05:58:31;22.00;99.90
18777;DHT22;9517;51.174;4.160;2022-08-25T06:01:01;22.10;99.90
18777;DHT22;9517;51.174;4.160;2022-08-25T06:03:50;22.20;99.90
18777;DHT22;9517;51.174;4.160;2022-08-25T06:06:19;22.30;99.90
18777;DHT22;9517;51.174;4.160;2022-08-25T06:08:46;22.30;99.90
18777;DHT22;9517;51.174;4.160;2022-08-25T06:11:14;22.40;99.90
18777;DHT22;9517;51.174;4.160;2022-08-25T06:13:41;22.40;99.90
18777;DHT22;9517;51.174;4.160;2022-08-25T06:16:10;22.40;99.90
18777;DHT22;9517;51.174;4.160;2022-08-25T06:28:53;22.80;99.90
18777;DHT22;9517;51.174;4.160;2022-08-25T06:31:22;22.90;99.90
18777;DHT22;9517;51.174;4.160;2022-08-25T06:33:50;23.10;99.90
18777;DHT22;9517;51.174;4.160;2022-08-25T06:36:18;23.30;99.90
18777;DHT22;9517;51.174;4.160;2022-08-25T06:38:46;23.40;99.90
18777;DHT22;9517;51.174;4.160;2022-08-25T06:41:13;23.70;99.90
18777;DHT22;9517;51.174;4.160;2022-08-25T06:43:41;23.90;99.90
18777;DHT22;9517;51.174;4.160;2022-08-25T06:46:13;24.20;99.90
18777;DHT22;9517;51.174;4.160;2022-08-25T06:48:41;24.40;99.90
18777;DHT22;9517;51.174;4.160;2022-08-25T06:51:10;24.70;99.90
18777;DHT22;9517;51.174;4.160;2022-08-25T06:53:38;24.90;99.90
18777;DHT22;9517;51.174;4.160;2022-08-25T06:56:05;25.10;99.90
18777;DHT22;9517;51.174;4.160;2022-08-25T07:21:59;26.20;99.90
18777;DHT22;9517;51.174;4.160;2022-08-25T07:24:43;26.30;99.90
18777;DHT22;9517;51.174;4.160;2022-08-25T07:27:11;26.30;99.90
18777;DHT22;9517;51.174;4.160;2022-08-25T07:29:39;26.30;99.90
18777;DHT22;9517;51.174;4.160;2022-08-25T07:32:12;26.20;99.90
18777;DHT22;9517;51.174;4.160;2022-08-25T07:34:48;26.30;99.90
18777;DHT22;9517;51.174;4.160;2022-08-25T07:37:36;26.40;99.90
18777;DHT22;9517;51.174;4.160;2022-08-25T07:40:04;26.60;99.90
18777;DHT22;9517;51.174;4.160;2022-08-25T07:42:34;26.60;99.90
18777;DHT22;9517;51.174;4.160;2022-08-25T07:45:05;26.50;99.90
18777;DHT22;9517;51.174;4.160;2022-08-25T07:47:32;26.50;99.90
18777;DHT22;9517;51.174;4.160;2022-08-25T07:49:59;26.50;99.90
18777;DHT22;9517;51.174;4.160;2022-08-25T07:52:32;26.50;99.90
18777;DHT22;9517;51.174;4.160;2022-08-25T07:55:00;26.70;99.90
18777;DHT22;9517;51.174;4.160;2022-08-25T07:57:29;26.90;99.90
18777;DHT22;9517;51.174;4.160;2022-08-25T07:59:56;27.10;99.90
18777;DHT22;9517;51.174;4.160;2022-08-25T08:02:25;27.20;99.90
18777;DHT22;9517;51.174;4.160;2022-08-25T08:04:53;27.30;99.90
18777;DHT22;9517;51.174;4.160;2022-08-25T08:07:21;27.50;99.90
18777;DHT22;9517;51.174;4.160;2022-08-25T08:09:49;27.70;99.90
18777;DHT22;9517;51.174;4.160;2022-08-25T08:12:18;27.80;99.90
18777;DHT22;9517;51.174;4.160;2022-08-25T08:14:45;27.80;99.90
18777;DHT22;9517;51.174;4.160;2022-08-25T08:17:12;27.90;99.90
18777;DHT22;9517;51.174;4.160;2022-08-25T08:19:40;27.90;99.90
18777;DHT22;9517;51.174;4.160;2022-08-25T08:22:07;28.00;99.90
18777;DHT22;9517;51.174;4.160;2022-08-25T08:24:36;28.20;99.90
18777;DHT22;9517;51.174;4.160;2022-08-25T08:27:04;28.30;99.90
18777;DHT22;9517;51.174;4.160;2022-08-25T08:29:35;28.40;99.90
18777;DHT22;9517;51.174;4.160;2022-08-25T08:32:03;28.50;99.90
18777;DHT22;9517;51.174;4.160;2022-08-25T08:34:30;28.70;99.90
18777;DHT22;9517;51.174;4.160;2022-08-25T08:36:57;28.90;99.90
18777;DHT22;9517;51.174;4.160;2022-08-25T08:39:28;29.10;99.90
18777;DHT22;9517;51.174;4.160;2022-08-25T08:42:11;29.20;99.90
18777;DHT22;9517;51.174;4.160;2022-08-25T08:45:18;29.50;99.90
18777;DHT22;9517;51.174;4.160;2022-08-25T08:48:07;29.70;99.90
18777;DHT22;9517;51.174;4.160;2022-08-25T08:50:38;29.70;99.90
18777;DHT22;9517;51.174;4.160;2022-08-25T08:53:12;29.70;99.90
18777;DHT22;9517;51.174;4.160;2022-08-25T08:55:42;29.80;99.90
18777;DHT22;9517;51.174;4.160;2022-08-25T08:58:12;30.00;99.90
18777;DHT22;9517;51.174;4.160;2022-08-25T09:00:45;30.40;99.90
18777;DHT22;9517;51.174;4.160;2022-08-25T09:03:22;30.70;99.90
18777;DHT22;9517;51.174;4.160;2022-08-25T09:05:55;30.70;99.90
18777;DHT22;9517;51.174;4.160;2022-08-25T09:08:22;30.80;99.90
18777;DHT22;9517;51.174;4.160;2022-08-25T09:11:06;31.00;99.90
18777;DHT22;9517;51.174;4.160;2022-08-25T09:13:43;31.10;99.90
18777;DHT22;9517;51.174;4.160;2022-08-25T09:16:18;31.30;99.90
18777;DHT22;9517;51.174;4.160;2022-08-25T09:19:16;31.50;99.90
18777;DHT22;9517;51.174;4.160;2022-08-25T09:21:56;31.70;99.90
18777;DHT22;9517;51.174;4.160;2022-08-25T09:24:45;31.80;99.90
18777;DHT22;9517;51.174;4.160;2022-08-25T09:27:21;31.80;99.90
18777;DHT22;9517;51.174;4.160;2022-08-25T09:29:58;31.90;99.90
18777;DHT22;9517;51.174;4.160;2022-08-25T09:32:31;31.60;99.90
18777;DHT22;9517;51.174;4.160;2022-08-25T09:35:00;31.70;99.90
18777;DHT22;9517;51.174;4.160;2022-08-25T09:37:28;31.90;99.90
18777;DHT22;9517;51.174;4.160;2022-08-25T09:39:56;32.20;99.90
18777;DHT22;9517;51.174;4.160;2022-08-25T09:42:48;32.60;99.90
18777;DHT22;9517;51.174;4.160;2022-08-25T09:45:15;33.20;99.90
18777;DHT22;9517;51.174;4.160;2022-08-25T09:47:43;33.30;99.90
18777;DHT22;9517;51.174;4.160;2022-08-25T09:50:14;32.70;99.90
18777;DHT22;9517;51.174;4.160;2022-08-25T09:52:42;32.80;99.90
18777;DHT22;9517;51.174;4.160;2022-08-25T09:55:31;33.10;99.90
18777;DHT22;9517;51.174;4.160;2022-08-25T09:58:14;33.50;99.90
18777;DHT22;9517;51.174;4.160;2022-08-25T10:00:41;33.60;99.90
18777;DHT22;9517;51.174;4.160;2022-08-25T10:03:12;34.30;99.90
18777;DHT22;9517;51.174;4.160;2022-08-25T10:05:56;34.70;99.90
18777;DHT22;9517;51.174;4.160;2022-08-25T10:08:31;34.70;99.90
18777;DHT22;9517;51.174;4.160;2022-08-25T10:11:00;34.60;99.90
18777;DHT22;9517;51.174;4.160;2022-08-25T10:13:36;34.60;99.90
18777;DHT22;9517;51.174;4.160;2022-08-25T10:16:10;35.20;99.90
18777;DHT22;9517;51.174;4.160;2022-08-25T10:18:37;35.50;99.90
18777;DHT22;9517;51.174;4.160;2022-08-25T10:21:10;36.10;98.80
18777;DHT22;9517;51.174;4.160;2022-08-25T10:23:41;36.60;99.90
18777;DHT22;9517;51.174;4.160;2022-08-25T10:26:15;37.70;99.50
18777;DHT22;9517;51.174;4.160;2022-08-25T10:31:47;38.20;96.30
18777;DHT22;9517;51.174;4.160;2022-08-25T10:34:27;38.70;93.80
18777;DHT22;9517;51.174;4.160;2022-08-25T10:37:04;38.00;92.90
18777;DHT22;9517;51.174;4.160;2022-08-25T10:39:39;37.10;92.80
18777;DHT22;9517;51.174;4.160;2022-08-25T10:42:26;37.00;92.80
18777;DHT22;9517;51.174;4.160;2022-08-25T10:45:07;36.90;94.00
18777;DHT22;9517;51.174;4.160;2022-08-25T10:48:12;37.00;93.70
18777;DHT22;9517;51.174;4.160;2022-08-25T10:50:44;37.20;92.30
18777;DHT22;9517;51.174;4.160;2022-08-25T10:53:21;37.20;94.50
18777;DHT22;9517;51.174;4.160;2022-08-25T10:56:01;38.00;92.40
18777;DHT22;9517;51.174;4.160;2022-08-25T11:01:38;38.70;90.10
18777;DHT22;9517;51.174;4.160;2022-08-25T11:04:11;39.00;90.90
18777;DHT22;9517;51.174;4.160;2022-08-25T11:06:42;40.10;90.00
18777;DHT22;9517;51.174;4.160;2022-08-25T11:09:14;40.60;84.80
18777;DHT22;9517;51.174;4.160;2022-08-25T11:11:48;39.90;84.60
18777;DHT22;9517;51.174;4.160;2022-08-25T11:14:21;40.10;86.80
18777;DHT22;9517;51.174;4.160;2022-08-25T11:16:52;41.00;81.80
18777;DHT22;9517;51.174;4.160;2022-08-25T11:19:29;41.60;78.90
18777;DHT22;9517;51.174;4.160;2022-08-25T11:22:03;41.00;80.30
18777;DHT22;9517;51.174;4.160;2022-08-25T11:24:41;41.00;78.20
18777;DHT22;9517;51.174;4.160;2022-08-25T11:27:15;40.40;75.40
18777;DHT22;9517;51.174;4.160;2022-08-25T11:29:55;40.20;73.80
18777;DHT22;9517;51.174;4.160;2022-08-25T11:32:24;40.80;73.10
18777;DHT22;9517;51.174;4.160;2022-08-25T11:34:53;40.80;72.30
18777;DHT22;9517;51.174;4.160;2022-08-25T11:37:23;40.30;71.50
18777;DHT22;9517;51.174;4.160;2022-08-25T11:40:09;40.90;73.50
18777;DHT22;9517;51.174;4.160;2022-08-25T11:42:49;40.90;70.60
18777;DHT22;9517;51.174;4.160;2022-08-25T11:45:41;40.70;69.40
18777;DHT22;9517;51.174;4.160;2022-08-25T11:48:17;39.50;71.00
18777;DHT22;9517;51.174;4.160;2022-08-25T11:50:58;39.50;69.50
18777;DHT22;9517;51.174;4.160;2022-08-25T11:53:28;39.30;68.90
18777;DHT22;9517;51.174;4.160;2022-08-25T11:55:57;40.20;72.40
18777;DHT22;9517;51.174;4.160;2022-08-25T11:58:38;41.80;68.80
18777;DHT22;9517;51.174;4.160;2022-08-25T12:01:09;42.40;66.00
18777;DHT22;9517;51.174;4.160;2022-08-25T12:03:53;42.60;64.80
18777;DHT22;9517;51.174;4.160;2022-08-25T12:10:18;43.40;65.80
18777;DHT22;9517;51.174;4.160;2022-08-25T12:13:04;43.00;61.00
18777;DHT22;9517;51.174;4.160;2022-08-25T12:18:40;41.10;65.30
18777;DHT22;9517;51.174;4.160;2022-08-25T12:21:12;41.20;63.50
18777;DHT22;9517;51.174;4.160;2022-08-25T12:23:41;40.60;63.50
18777;DHT22;9517;51.174;4.160;2022-08-25T12:26:17;39.70;74.70
18777;DHT22;9517;51.174;4.160;2022-08-25T12:29:00;39.00;78.90
18777;DHT22;9517;51.174;4.160;2022-08-25T12:31:45;39.30;80.10
18777;DHT22;9517;51.174;4.160;2022-08-25T12:34:43;38.20;83.00
18777;DHT22;9517;51.174;4.160;2022-08-25T12:37:15;36.60;85.50
18777;DHT22;9517;51.174;4.160;2022-08-25T12:39:45;34.80;90.70
18777;DHT22;9517;51.174;4.160;2022-08-25T12:42:27;33.80;92.50
18777;DHT22;9517;51.174;4.160;2022-08-25T12:45:12;33.10;93.80
18777;DHT22;9517;51.174;4.160;2022-08-25T12:47:40;33.20;94.00
18777;DHT22;9517;51.174;4.160;2022-08-25T12:50:37;33.80;94.00
18777;DHT22;9517;51.174;4.160;2022-08-25T12:53:14;33.20;94.60
18777;DHT22;9517;51.174;4.160;2022-08-25T12:55:46;32.90;95.00
18777;DHT22;9517;51.174;4.160;2022-08-25T12:58:16;32.50;96.20
18777;DHT22;9517;51.174;4.160;2022-08-25T13:01:09;32.20;97.10
18777;DHT22;9517;51.174;4.160;2022-08-25T13:04:01;31.90;97.50
18777;DHT22;9517;51.174;4.160;2022-08-25T13:06:37;32.90;96.90
18777;DHT22;9517;51.174;4.160;2022-08-25T13:09:42;34.50;95.30
18777;DHT22;9517;51.174;4.160;2022-08-25T13:12:16;34.90;94.20
18777;DHT22;9517;51.174;4.160;2022-08-25T13:14:53;34.20;93.60
18777;DHT22;9517;51.174;4.160;2022-08-25T13:17:25;33.30;95.00
18777;DHT22;9517;51.174;4.160;2022-08-25T13:20:10;32.50;96.30
18777;DHT22;9517;51.174;4.160;2022-08-25T13:22:37;31.90;97.70
18777;DHT22;9517;51.174;4.160;2022-08-25T13:25:04;31.40;97.30
18777;DHT22;9517;51.174;4.160;2022-08-25T13:27:33;31.10;97.50
18777;DHT22;9517;51.174;4.160;2022-08-25T13:30:03;31.50;97.90
18777;DHT22;9517;51.174;4.160;2022-08-25T13:32:32;31.70;98.20
18777;DHT22;9517;51.174;4.160;2022-08-25T13:35:11;31.80;98.20
18777;DHT22;9517;51.174;4.160;2022-08-25T13:37:40;31.80;98.00
18777;DHT22;9517;51.174;4.160;2022-08-25T13:40:11;32.20;97.40
18777;DHT22;9517;51.174;4.160;2022-08-25T13:42:43;33.10;96.90
18777;DHT22;9517;51.174;4.160;2022-08-25T13:45:16;34.30;95.20
18777;DHT22;9517;51.174;4.160;2022-08-25T13:47:45;34.30;95.00
18777;DHT22;9517;51.174;4.160;2022-08-25T13:50:26;34.20;95.10
18777;DHT22;9517;51.174;4.160;2022-08-25T13:52:57;33.90;95.70
18777;DHT22;9517;51.174;4.160;2022-08-25T13:55:47;33.60;96.00
18777;DHT22;9517;51.174;4.160;2022-08-25T13:58:17;33.70;96.90
18777;DHT22;9517;51.174;4.160;2022-08-25T14:01:07;33.50;96.50
18777;DHT22;9517;51.174;4.160;2022-08-25T14:03:37;34.10;96.40
18777;DHT22;9517;51.174;4.160;2022-08-25T14:32:45;36.40;92.10
18777;DHT22;9517;51.174;4.160;2022-08-25T14:35:15;36.10;92.50
18777;DHT22;9517;51.174;4.160;2022-08-25T14:37:46;35.00;94.50
18777;DHT22;9517;51.174;4.160;2022-08-25T14:40:14;34.50;97.20
18777;DHT22;9517;51.174;4.160;2022-08-25T14:42:44;34.00;99.40
18777;DHT22;9517;51.174;4.160;2022-08-25T14:45:12;34.50;99.90
18777;DHT22;9517;51.174;4.160;2022-08-25T14:47:39;34.80;99.90
18777;DHT22;9517;51.174;4.160;2022-08-25T14:50:09;34.00;99.90
18777;DHT22;9517;51.174;4.160;2022-08-25T14:52:37;33.80;99.90
18777;DHT22;9517;51.174;4.160;2022-08-25T14:55:06;33.00;99.90
18777;DHT22;9517;51.174;4.160;2022-08-25T14:57:33;33.20;99.90
18777;DHT22;9517;51.174;4.160;2022-08-25T15:00:02;33.30;99.90
18777;DHT22;9517;51.174;4.160;2022-08-25T15:02:41;32.90;99.90
18777;DHT22;9517;51.174;4.160;2022-08-25T15:05:25;32.50;99.90
18777;DHT22;9517;51.174;4.160;2022-08-25T15:08:02;33.30;99.90
18777;DHT22;9517;51.174;4.160;2022-08-25T15:10:47;33.10;99.90
18777;DHT22;9517;51.174;4.160;2022-08-25T15:13:14;32.80;99.90
18777;DHT22;9517;51.174;4.160;2022-08-25T15:15:43;32.50;99.90
18777;DHT22;9517;51.174;4.160;2022-08-25T15:18:10;32.40;99.90
18777;DHT22;9517;51.174;4.160;2022-08-25T15:20:39;32.80;99.90
18777;DHT22;9517;51.174;4.160;2022-08-25T15:23:07;32.70;99.90
18777;DHT22;9517;51.174;4.160;2022-08-25T15:25:34;32.50;99.90
18777;DHT22;9517;51.174;4.160;2022-08-25T15:28:03;32.00;99.90
18777;DHT22;9517;51.174;4.160;2022-08-25T15:30:30;31.60;99.90
18777;DHT22;9517;51.174;4.160;2022-08-25T15:32:59;31.90;99.90
18777;DHT22;9517;51.174;4.160;2022-08-25T15:35:27;32.00;99.90
18777;DHT22;9517;51.174;4.160;2022-08-25T15:37:56;31.60;99.90
18777;DHT22;9517;51.174;4.160;2022-08-25T15:40:29;31.80;99.90
18777;DHT22;9517;51.174;4.160;2022-08-25T15:42:57;31.80;99.90
18777;DHT22;9517;51.174;4.160;2022-08-25T15:45:26;31.40;99.90
18777;DHT22;9517;51.174;4.160;2022-08-25T15:47:53;31.30;99.90
18777;DHT22;9517;51.174;4.160;2022-08-25T15:50:21;31.10;99.90
18777;DHT22;9517;51.174;4.160;2022-08-25T15:52:48;30.70;99.90
18777;DHT22;9517;51.174;4.160;2022-08-25T15:55:17;30.40;99.90
18777;DHT22;9517;51.174;4.160;2022-08-25T15:57:44;30.30;99.90
18777;DHT22;9517;51.174;4.160;2022-08-25T16:00:14;30.40;99.90
18777;DHT22;9517;51.174;4.160;2022-08-25T16:02:42;30.60;99.90
18777;DHT22;9517;51.174;4.160;2022-08-25T16:05:09;30.10;99.90
18777;DHT22;9517;51.174;4.160;2022-08-25T16:07:37;30.30;99.90
18777;DHT22;9517;51.174;4.160;2022-08-25T16:10:05;30.20;99.90
18777;DHT22;9517;51.174;4.160;2022-08-25T16:12:34;30.20;99.90
18777;DHT22;9517;51.174;4.160;2022-08-25T16:15:02;30.40;99.90
18777;DHT22;9517;51.174;4.160;2022-08-25T16:17:30;30.60;99.90
18777;DHT22;9517;51.174;4.160;2022-08-25T16:19:59;30.10;99.90
18777;DHT22;9517;51.174;4.160;2022-08-25T16:22:26;30.00;99.90
18777;DHT22;9517;51.174;4.160;2022-08-25T16:24:53;29.80;99.90
18777;DHT22;9517;51.174;4.160;2022-08-25T16:27:21;29.30;99.90
18777;DHT22;9517;51.174;4.160;2022-08-25T16:29:50;28.80;99.90
18777;DHT22;9517;51.174;4.160;2022-08-25T16:32:17;28.90;99.90
18777;DHT22;9517;51.174;4.160;2022-08-25T16:34:48;28.40;99.90
18777;DHT22;9517;51.174;4.160;2022-08-25T16:37:15;27.60;99.90
18777;DHT22;9517;51.174;4.160;2022-08-25T16:39:42;27.70;99.90
18777;DHT22;9517;51.174;4.160;2022-08-25T16:42:10;27.70;99.90
18777;DHT22;9517;51.174;4.160;2022-08-25T16:44:37;27.90;99.90
18777;DHT22;9517;51.174;4.160;2022-08-25T16:47:07;28.10;99.90
18777;DHT22;9517;51.174;4.160;2022-08-25T16:49:34;28.20;99.90
18777;DHT22;9517;51.174;4.160;2022-08-25T16:52:01;28.60;99.90
18777;DHT22;9517;51.174;4.160;2022-08-25T16:54:48;28.50;99.90
18777;DHT22;9517;51.174;4.160;2022-08-25T16:57:33;28.10;99.90
18777;DHT22;9517;51.174;4.160;2022-08-25T17:00:00;27.80;99.90
18777;DHT22;9517;51.174;4.160;2022-08-25T17:02:31;27.80;99.90
18777;DHT22;9517;51.174;4.160;2022-08-25T17:05:01;27.60;99.90
18777;DHT22;9517;51.174;4.160;2022-08-25T17:07:28;27.60;99.90
18777;DHT22;9517;51.174;4.160;2022-08-25T17:09:55;27.40;99.90
18777;DHT22;9517;51.174;4.160;2022-08-25T17:12:23;27.30;99.90
18777;DHT22;9517;51.174;4.160;2022-08-25T17:14:50;27.20;99.90
18777;DHT22;9517;51.174;4.160;2022-08-25T17:17:18;27.20;99.90
18777;DHT22;9517;51.174;4.160;2022-08-25T17:19:47;27.10;99.90
18777;DHT22;9517;51.174;4.160;2022-08-25T17:22:14;26.90;99.90
18777;DHT22;9517;51.174;4.160;2022-08-25T17:24:42;26.80;99.90
18777;DHT22;9517;51.174;4.160;2022-08-25T17:27:09;26.60;99.90